Decoded Metar for KIJD (WILLIMANTIC in CT, USA) (IATA:IJD) | Meteo·Mobile Aviation Weather
aviador You're here:

KIJD Decoded Metar

WILLIMANTIC in CT, USA
Report Time2018-11-21 16:52:00
UTC Time2018-11-21 17:50:41
Flight Rules vfr VFR
Wind230° at 10 kt
W.Decomp.*RWY 27: 9.1 kt HW 4.2 kt LCW
RWY 18: 4.2 kt HW 9.1 kt RCW
W.Rank230° ranks 23
Current wind is above 230° avg. (6.0)
Visibility9999 m
Phenomena:N/A
Clouds:Overcast 110 Hf
Expected CloudBase > 2,800 ft AGL from Temp-Dew spread
Ceiling11,000 ft
Temp03°C (ISA -12)
Dew Point-4°C (60% RH)
AAT-3.1°C
QNH1014 hPa
Density Alt-1,122 ft
Elevation246 ft
Report Wrong Elevation
Raw Report
KIJD 211652Z AUTO 23010KT 10SM OVC110 03/M04 A2995 RMK AO2 SLP144
T00281039=

Extra information for KIJD:More info

Metar Taf Metar & Taf Last 4 Metars F.Rules Stats Wind Profile Meteogram Temp Stats Airport Information Weather charts Add Link Nearby VenuesMetar ALERT Operation Metar Decoded Social comments

AIRNAV info for KIJD